createdAt,value
2022-07-29T00:02:25.425Z,61.28
2022-07-29T00:04:52.060Z,60.87
2022-07-29T00:07:18.818Z,61.38
2022-07-29T00:09:51.220Z,61.41
2022-07-29T00:12:25.058Z,61.07
2022-07-29T00:14:57.219Z,61.47
2022-07-29T00:17:25.671Z,60.78
2022-07-29T00:19:52.673Z,59.87
2022-07-29T00:22:20.131Z,60.85
2022-07-29T00:24:49.456Z,61.56
2022-07-29T00:27:16.094Z,61.15
2022-07-29T00:29:42.805Z,61.44
2022-07-29T00:32:12.095Z,62.05
2022-07-29T00:34:57.165Z,61.99
2022-07-29T00:37:23.988Z,62.24
2022-07-29T00:39:50.618Z,61.63
2022-07-29T00:42:17.675Z,61.14
2022-07-29T00:44:44.353Z,61.65
2022-07-29T00:47:13.143Z,60.98
2022-07-29T00:49:41.636Z,62.84
2022-07-29T00:52:10.214Z,62.56
2022-07-29T00:54:44.031Z,62.28
2022-07-29T00:57:12.129Z,62.99
2022-07-29T00:59:38.730Z,62.68
2022-07-29T01:02:05.549Z,62.42
2022-07-29T01:04:32.963Z,64.28
2022-07-29T01:07:01.974Z,63.39
2022-07-29T01:09:40.850Z,62.13
2022-07-29T01:12:22.522Z,62.21
2022-07-29T01:14:51.033Z,63.13
2022-07-29T01:17:56.222Z,65.16
2022-07-29T01:20:32.061Z,64.96
2022-07-29T01:23:04.772Z,63.17
2022-07-29T01:25:46.817Z,63.39
2022-07-29T01:29:11.014Z,64.05
2022-07-29T01:32:01.200Z,62.98
2022-07-29T01:34:31.072Z,62.89
2022-07-29T01:37:38.840Z,63.92
2022-07-29T01:40:07.425Z,63.87
2022-07-29T01:42:43.541Z,65.74
2022-07-29T01:45:16.636Z,64.16
2022-07-29T01:47:47.846Z,64.92
2022-07-29T01:50:18.789Z,65.25
2022-07-29T01:52:53.677Z,66.08
2022-07-29T01:55:23.395Z,66.05
2022-07-29T01:57:50.753Z,66.75
2022-07-29T02:00:18.534Z,66.15
2022-07-29T02:02:47.915Z,66.25
2022-07-29T02:05:18.562Z,66.41
2022-07-29T02:07:48.566Z,65.76
2022-07-29T02:10:18.579Z,65.21
2022-07-29T02:12:50.793Z,65.67
2022-07-29T02:15:19.129Z,65.51
2022-07-29T02:17:56.061Z,65.69
2022-07-29T02:20:26.071Z,66.74
2022-07-29T02:22:55.680Z,66.61
2022-07-29T02:25:25.048Z,66.48
2022-07-29T02:28:06.163Z,67.32
2022-07-29T02:30:33.953Z,66.24
2022-07-29T02:33:01.873Z,67.98
2022-07-29T02:35:29.010Z,66.73
2022-07-29T02:38:21.580Z,66.99
2022-07-29T02:40:50.854Z,66.91
2022-07-29T02:43:19.610Z,67.61
2022-07-29T02:45:48.352Z,67.31
2022-07-29T02:48:22.418Z,68.76
2022-07-29T02:51:01.739Z,67.42
2022-07-29T02:53:32.740Z,67.38
2022-07-29T02:56:25.489Z,67.38
2022-07-29T02:58:59.608Z,67.37
2022-07-29T03:01:31.230Z,67.67
2022-07-29T03:04:01.941Z,68.00
2022-07-29T03:06:38.105Z,69.17
2022-07-29T03:09:12.929Z,69.55
2022-07-29T03:11:46.191Z,69.81
2022-07-29T03:14:19.304Z,70.59
2022-07-29T03:16:47.741Z,70.08
2022-07-29T03:19:14.834Z,70.31
2022-07-29T03:21:41.476Z,69.76
2022-07-29T03:24:10.513Z,71.55
2022-07-29T03:26:37.870Z,71.27
2022-07-29T03:29:04.541Z,69.76
2022-07-29T03:31:32.153Z,70.61
2022-07-29T03:34:00.258Z,71.43
2022-07-29T03:36:27.070Z,69.60
2022-07-29T03:38:54.087Z,70.49
2022-07-29T03:41:23.505Z,70.57
2022-07-29T03:43:52.867Z,70.44
2022-07-29T03:46:23.774Z,70.08
2022-07-29T03:48:54.027Z,71.00
2022-07-29T03:51:33.187Z,70.98
2022-07-29T03:54:06.203Z,71.29
2022-07-29T03:56:40.659Z,71.87
2022-07-29T03:59:08.220Z,72.44
2022-07-29T04:01:36.306Z,72.15
2022-07-29T04:04:04.840Z,71.77
2022-07-29T04:06:42.064Z,72.12
2022-07-29T04:09:09.756Z,72.41
2022-07-29T04:12:02.245Z,73.34
2022-07-29T04:14:25.711Z,72.53
2022-07-29T04:16:52.375Z,72.93
2022-07-29T04:19:18.990Z,72.69
2022-07-29T04:21:46.301Z,72.05
2022-07-29T04:24:13.070Z,72.99
2022-07-29T04:26:39.892Z,73.39
2022-07-29T04:29:06.612Z,73.11
2022-07-29T04:31:33.288Z,73.44
2022-07-29T04:33:59.942Z,72.46
2022-07-29T04:36:28.487Z,71.51
2022-07-29T04:38:56.432Z,73.18
2022-07-29T04:41:23.076Z,72.79
2022-07-29T04:43:50.049Z,73.11
2022-07-29T04:46:16.928Z,72.81
2022-07-29T04:48:43.625Z,72.76
2022-07-29T04:51:10.356Z,73.05
2022-07-29T04:53:36.941Z,73.17
2022-07-29T04:56:04.069Z,73.47
2022-07-29T04:58:30.728Z,74.05
2022-07-29T05:00:57.385Z,74.09
2022-07-29T05:03:23.950Z,73.45
2022-07-29T05:05:50.617Z,72.80
2022-07-29T05:08:17.220Z,73.99
2022-07-29T05:10:43.928Z,72.04
2022-07-29T05:13:10.647Z,71.54
2022-07-29T05:15:38.370Z,73.99
2022-07-29T05:18:05.483Z,73.38
2022-07-29T05:20:33.907Z,73.40
2022-07-29T05:23:02.094Z,74.56
2022-07-29T05:25:43.585Z,73.62
2022-07-29T05:28:11.819Z,72.68
2022-07-29T05:30:38.512Z,72.96
2022-07-29T05:33:05.131Z,73.12
2022-07-29T05:35:31.798Z,73.66
2022-07-29T05:37:58.378Z,72.83
2022-07-29T05:40:25.111Z,71.38
2022-07-29T05:42:51.742Z,70.56
2022-07-29T05:45:18.392Z,69.17
2022-07-29T05:47:45.033Z,69.33
2022-07-29T05:50:11.817Z,68.40
2022-07-29T05:52:38.454Z,66.81
2022-07-29T05:55:06.603Z,66.97
2022-07-29T05:57:33.742Z,67.51
2022-07-29T06:00:00.500Z,67.66
2022-07-29T06:02:27.253Z,65.84
2022-07-29T06:04:54.026Z,65.62
2022-07-29T06:07:20.888Z,66.19
2022-07-29T06:09:47.500Z,67.65
2022-07-29T06:12:14.257Z,65.58
2022-07-29T06:14:41.132Z,65.08
2022-07-29T06:17:07.894Z,64.89
2022-07-29T06:19:37.715Z,66.32
2022-07-29T06:22:04.641Z,65.36
2022-07-29T06:24:31.694Z,63.64
2022-07-29T06:26:58.339Z,64.08
2022-07-29T06:29:24.981Z,61.29
2022-07-29T06:31:51.589Z,59.19
2022-07-29T06:34:18.512Z,62.30
2022-07-29T06:36:46.065Z,65.07
2022-07-29T06:39:13.108Z,62.11
2022-07-29T06:41:40.003Z,64.29
2022-07-29T06:44:06.685Z,58.79
2022-07-29T06:46:33.753Z,58.75
2022-07-29T06:49:02.552Z,58.77
2022-07-29T06:51:29.895Z,60.32
2022-07-29T06:54:02.127Z,62.63
2022-07-29T06:56:38.916Z,58.09
2022-07-29T06:59:10.441Z,54.59
2022-07-29T07:01:42.405Z,56.58
2022-07-29T07:04:10.101Z,55.84
2022-07-29T07:06:37.404Z,54.74
2022-07-29T07:09:05.048Z,55.29
2022-07-29T07:11:31.750Z,51.58
2022-07-29T07:14:02.961Z,53.45
2022-07-29T07:16:30.187Z,51.17
2022-07-29T07:18:56.834Z,57.62
2022-07-29T07:21:23.443Z,55.20
2022-07-29T07:23:50.086Z,49.56
2022-07-29T07:26:16.749Z,52.30
2022-07-29T07:28:43.364Z,48.63
2022-07-29T07:31:10.639Z,53.27
2022-07-29T07:33:37.252Z,42.53
2022-07-29T07:36:03.947Z,46.04
2022-07-29T07:38:30.623Z,50.37
2022-07-29T07:40:57.255Z,42.44
2022-07-29T07:43:23.942Z,44.69
2022-07-29T07:45:50.764Z,48.77
2022-07-29T07:48:17.536Z,48.58
2022-07-29T07:50:44.754Z,40.86
2022-07-29T07:53:11.893Z,42.32
2022-07-29T07:58:29.811Z,43.93
2022-07-29T08:00:56.558Z,46.85
2022-07-29T08:03:23.191Z,41.97
2022-07-29T08:05:51.738Z,46.48
2022-07-29T08:08:18.942Z,41.91
2022-07-29T08:10:54.554Z,46.41
2022-07-29T08:13:22.631Z,43.31
2022-07-29T08:15:58.494Z,39.75
2022-07-29T08:18:26.144Z,39.96
2022-07-29T08:20:52.789Z,38.45
2022-07-29T08:23:22.407Z,43.85
2022-07-29T08:25:50.240Z,42.69
2022-07-29T08:28:18.047Z,37.63
2022-07-29T08:30:44.939Z,39.65
2022-07-29T08:33:11.589Z,39.46
2022-07-29T08:35:39.822Z,42.13
2022-07-29T08:38:06.568Z,44.88
2022-07-29T08:40:33.224Z,41.47
2022-07-29T08:43:04.926Z,35.92
2022-07-29T08:45:48.227Z,35.36
2022-07-29T08:48:17.093Z,38.97
2022-07-29T08:50:46.518Z,36.64
2022-07-29T08:53:15.691Z,41.97
2022-07-29T08:55:47.929Z,37.85
2022-07-29T08:58:15.892Z,35.37
2022-07-29T09:00:46.379Z,37.56
2022-07-29T09:03:18.964Z,34.63
2022-07-29T09:05:48.278Z,34.83
2022-07-29T09:08:18.635Z,37.31
2022-07-29T09:10:45.919Z,36.04
2022-07-29T09:13:12.852Z,32.92
2022-07-29T09:16:04.473Z,32.82
2022-07-29T09:18:42.130Z,30.21
2022-07-29T09:21:30.412Z,35.45
2022-07-29T09:24:14.241Z,31.38
2022-07-29T09:26:45.737Z,31.21
2022-07-29T09:29:15.198Z,31.62
2022-07-29T09:31:45.156Z,35.35
2022-07-29T09:34:13.242Z,32.72
2022-07-29T09:36:50.611Z,28.63
2022-07-29T09:39:29.956Z,27.84
2022-07-29T09:41:59.827Z,29.16
2022-07-29T09:44:27.510Z,32.52
2022-07-29T09:47:00.389Z,29.58
2022-07-29T09:49:27.431Z,33.87
2022-07-29T09:52:10.666Z,27.03
2022-07-29T09:54:37.811Z,26.20
2022-07-29T09:57:13.401Z,32.90
2022-07-29T09:59:50.373Z,27.68
2022-07-29T10:02:23.811Z,27.68
2022-07-29T10:04:50.659Z,25.83
2022-07-29T10:07:17.266Z,25.21
2022-07-29T10:09:53.972Z,24.68
2022-07-29T10:12:20.630Z,26.67
2022-07-29T10:14:48.431Z,22.78
2022-07-29T10:17:16.610Z,31.94
2022-07-29T10:19:43.777Z,25.66
2022-07-29T10:22:11.446Z,25.03
2022-07-29T10:24:39.638Z,25.44
2022-07-29T10:27:09.056Z,26.16
2022-07-29T10:29:37.112Z,29.04
2022-07-29T10:32:25.588Z,22.44
2022-07-29T10:35:13.038Z,22.11
2022-07-29T10:38:04.836Z,26.70
2022-07-29T10:41:19.626Z,22.75
2022-07-29T10:43:51.329Z,25.58
2022-07-29T10:46:19.534Z,26.91
2022-07-29T10:49:09.348Z,21.55
2022-07-29T10:51:59.115Z,23.64
2022-07-29T10:57:53.839Z,20.65
2022-07-29T11:00:16.887Z,22.90
2022-07-29T11:02:45.339Z,23.82
2022-07-29T11:05:18.112Z,22.62
2022-07-29T11:08:20.543Z,22.58
2022-07-29T11:10:53.509Z,31.53
2022-07-29T11:13:49.362Z,30.45
2022-07-29T11:16:16.705Z,27.06
2022-07-29T11:19:14.698Z,27.52
2022-07-29T11:21:54.889Z,29.53
2022-07-29T11:24:33.035Z,26.20
2022-07-29T11:27:08.510Z,33.77
2022-07-29T11:29:40.108Z,20.21
2022-07-29T11:32:23.291Z,26.91
2022-07-29T11:35:17.258Z,23.68
2022-07-29T11:37:56.406Z,26.40
2022-07-29T11:40:24.776Z,21.27
2022-07-29T11:42:52.519Z,22.80
2022-07-29T11:45:42.063Z,29.67
2022-07-29T11:48:29.466Z,20.75
2022-07-29T11:50:59.405Z,22.01
2022-07-29T11:53:29.149Z,23.37
2022-07-29T11:56:00.396Z,23.54
2022-07-29T11:58:28.350Z,22.20
2022-07-29T12:00:56.258Z,23.48
2022-07-29T12:03:33.613Z,23.59
2022-07-29T12:06:02.679Z,26.22
2022-07-29T12:08:29.295Z,30.57
2022-07-29T12:10:56.022Z,25.14
2022-07-29T12:13:23.041Z,28.44
2022-07-29T12:16:04.954Z,23.54
2022-07-29T12:18:32.118Z,26.74
2022-07-29T12:21:04.830Z,32.57
2022-07-29T12:23:35.726Z,26.18
2022-07-29T12:26:07.608Z,28.64
2022-07-29T12:28:39.665Z,26.77
2022-07-29T12:31:08.169Z,27.07
2022-07-29T12:33:35.940Z,25.94
2022-07-29T12:36:07.544Z,26.20
2022-07-29T12:38:40.864Z,27.08
2022-07-29T12:41:07.792Z,28.70
2022-07-29T12:43:34.473Z,31.16
2022-07-29T12:46:13.708Z,30.69
2022-07-29T12:48:42.677Z,27.55
2022-07-29T12:51:11.099Z,27.02
2022-07-29T12:53:38.496Z,29.34
2022-07-29T12:56:15.812Z,26.75
2022-07-29T12:58:51.171Z,26.39
2022-07-29T13:01:20.465Z,24.74
2022-07-29T13:03:57.348Z,25.77
2022-07-29T13:06:41.224Z,25.83
2022-07-29T13:09:09.791Z,29.88
2022-07-29T13:11:45.316Z,24.11
2022-07-29T13:14:35.204Z,25.60
2022-07-29T13:17:10.548Z,24.91
2022-07-29T13:19:44.378Z,26.23
2022-07-29T13:22:19.473Z,22.62
2022-07-29T13:24:50.447Z,24.75
2022-07-29T13:27:18.336Z,24.35
2022-07-29T13:29:45.323Z,24.31
2022-07-29T13:32:13.337Z,26.14
2022-07-29T13:34:40.584Z,23.31
2022-07-29T13:37:07.571Z,24.17
2022-07-29T13:39:34.222Z,24.26
2022-07-29T13:42:01.395Z,23.81
2022-07-29T13:44:28.317Z,24.24
2022-07-29T13:46:55.020Z,31.97
2022-07-29T13:49:21.671Z,27.16
2022-07-29T13:51:48.616Z,24.40
2022-07-29T13:54:15.250Z,23.52
2022-07-29T13:56:41.898Z,22.67
2022-07-29T13:59:08.799Z,24.69
2022-07-29T14:01:36.623Z,23.76
2022-07-29T14:04:03.955Z,21.60
2022-07-29T14:06:30.645Z,23.97
2022-07-29T14:08:57.362Z,22.30
2022-07-29T14:11:23.987Z,23.72
2022-07-29T14:13:51.214Z,21.43
2022-07-29T14:16:17.928Z,21.98
2022-07-29T14:18:44.694Z,20.79
2022-07-29T14:21:11.323Z,23.40
2022-07-29T14:23:38.246Z,21.93
2022-07-29T14:26:13.120Z,20.11
2022-07-29T14:28:48.207Z,22.98
2022-07-29T14:31:15.388Z,19.17
2022-07-29T14:33:42.247Z,21.17
2022-07-29T14:36:13.476Z,22.34
2022-07-29T14:38:41.430Z,21.02
2022-07-29T14:41:09.006Z,21.06
2022-07-29T14:43:36.219Z,21.33
2022-07-29T14:46:07.945Z,21.08
2022-07-29T14:48:35.023Z,22.64
2022-07-29T14:51:04.745Z,22.37
2022-07-29T14:53:31.621Z,23.76
2022-07-29T14:56:06.216Z,23.98
2022-07-29T14:58:49.062Z,23.46
2022-07-29T15:01:18.737Z,24.30
2022-07-29T15:03:45.416Z,23.81
2022-07-29T15:06:12.330Z,25.62
2022-07-29T15:08:39.016Z,25.84
2022-07-29T15:11:07.204Z,26.20
2022-07-29T15:13:34.391Z,24.93
2022-07-29T15:16:01.016Z,23.80
2022-07-29T15:18:27.833Z,23.68
2022-07-29T15:20:54.500Z,24.11
2022-07-29T15:23:21.215Z,24.15
2022-07-29T15:25:47.893Z,24.83
2022-07-29T15:28:14.488Z,24.67
2022-07-29T15:30:41.893Z,25.07
2022-07-29T15:33:10.374Z,23.83
2022-07-29T15:35:40.362Z,23.79
2022-07-29T15:38:07.949Z,25.13
2022-07-29T15:40:34.794Z,24.18
2022-07-29T15:43:06.794Z,24.43
2022-07-29T15:45:41.530Z,25.45
2022-07-29T15:48:10.106Z,26.32
2022-07-29T15:50:41.520Z,24.94
2022-07-29T15:53:08.176Z,25.69
2022-07-29T15:55:34.773Z,26.23
2022-07-29T15:58:01.399Z,26.01
2022-07-29T16:00:28.217Z,26.68
2022-07-29T16:02:54.830Z,25.78
2022-07-29T16:05:21.510Z,26.33
2022-07-29T16:07:48.126Z,26.27
2022-07-29T16:10:14.774Z,27.03
2022-07-29T16:12:41.924Z,27.28
2022-07-29T16:15:10.393Z,27.62
2022-07-29T16:17:37.996Z,28.82
2022-07-29T16:20:06.293Z,29.03
2022-07-29T16:22:32.900Z,29.87
2022-07-29T16:24:59.612Z,29.72
2022-07-29T16:27:35.594Z,29.44
2022-07-29T16:30:08.191Z,30.58
2022-07-29T16:32:34.812Z,30.75
2022-07-29T16:35:02.826Z,31.18
2022-07-29T16:37:33.554Z,31.67
2022-07-29T16:40:00.455Z,32.64
2022-07-29T16:42:45.323Z,32.78
2022-07-29T16:45:13.805Z,32.09
2022-07-29T16:47:40.520Z,31.67
2022-07-29T16:50:07.834Z,31.85
2022-07-29T16:52:34.524Z,31.13
2022-07-29T16:55:01.122Z,31.42
2022-07-29T16:57:27.749Z,30.53
2022-07-29T16:59:54.462Z,31.78
2022-07-29T17:02:21.093Z,31.60
2022-07-29T17:04:47.778Z,32.39
2022-07-29T17:07:14.942Z,32.17
2022-07-29T17:09:41.708Z,31.25
2022-07-29T17:12:08.684Z,30.76
2022-07-29T17:14:35.441Z,31.85
2022-07-29T17:17:03.029Z,32.41
2022-07-29T17:19:32.382Z,32.63
2022-07-29T17:22:08.495Z,33.14
2022-07-29T17:24:38.982Z,33.93
2022-07-29T17:27:06.972Z,34.60
2022-07-29T17:29:35.022Z,33.88
2022-07-29T17:32:01.614Z,34.21
2022-07-29T17:34:28.222Z,34.64
2022-07-29T17:36:54.981Z,34.63
2022-07-29T17:39:21.784Z,36.55
2022-07-29T17:41:48.463Z,35.99
2022-07-29T17:44:15.097Z,36.01
2022-07-29T17:46:41.805Z,35.73
2022-07-29T17:49:08.638Z,36.00
2022-07-29T17:51:35.326Z,37.79
2022-07-29T17:54:02.102Z,36.78
2022-07-29T17:56:28.723Z,36.53
2022-07-29T17:58:55.442Z,37.38
2022-07-29T18:01:23.652Z,37.65
2022-07-29T18:03:50.353Z,38.38
2022-07-29T18:06:16.968Z,39.15
2022-07-29T18:08:47.431Z,38.71
2022-07-29T18:11:15.153Z,38.85
2022-07-29T18:13:42.302Z,39.48
2022-07-29T18:16:09.363Z,39.44
2022-07-29T18:18:36.099Z,39.50
2022-07-29T18:21:03.782Z,40.32
2022-07-29T18:23:30.408Z,39.77
2022-07-29T18:25:57.080Z,40.67
2022-07-29T18:28:23.758Z,41.22
2022-07-29T18:30:50.455Z,41.44
2022-07-29T18:33:21.317Z,41.55
2022-07-29T18:35:49.983Z,41.47
2022-07-29T18:38:16.636Z,41.79
2022-07-29T18:40:45.670Z,42.19
2022-07-29T18:43:13.614Z,42.64
2022-07-29T18:45:40.730Z,43.01
2022-07-29T18:48:12.999Z,43.02
2022-07-29T18:50:41.381Z,43.22
2022-07-29T18:53:08.253Z,43.43
2022-07-29T18:55:34.980Z,44.09
2022-07-29T18:58:01.639Z,44.48
2022-07-29T19:00:28.650Z,44.51
2022-07-29T19:02:56.729Z,44.79
2022-07-29T19:05:23.937Z,45.05
2022-07-29T19:07:50.842Z,45.09
2022-07-29T19:10:17.797Z,45.94
2022-07-29T19:12:44.392Z,45.97
2022-07-29T19:15:11.214Z,46.33
2022-07-29T19:17:38.846Z,46.41
2022-07-29T19:20:07.391Z,46.21
2022-07-29T19:22:34.320Z,47.05
2022-07-29T19:25:00.990Z,47.78
2022-07-29T19:27:27.628Z,47.09
2022-07-29T19:29:58.992Z,48.03
2022-07-29T19:32:26.226Z,47.32
2022-07-29T19:35:12.077Z,48.06
2022-07-29T19:37:38.692Z,49.30
2022-07-29T19:40:06.829Z,47.83
2022-07-29T19:42:33.802Z,48.32
2022-07-29T19:45:00.439Z,49.53
2022-07-29T19:47:27.027Z,49.93
2022-07-29T19:49:53.668Z,50.53
2022-07-29T19:52:20.373Z,50.94
2022-07-29T19:54:46.971Z,49.61
2022-07-29T19:57:13.590Z,50.68
2022-07-29T19:59:41.124Z,49.97
2022-07-29T20:02:10.870Z,51.52
2022-07-29T20:04:38.690Z,51.17
2022-07-29T20:07:06.671Z,51.03
2022-07-29T20:09:33.352Z,51.45
2022-07-29T20:11:59.984Z,51.35
2022-07-29T20:14:26.597Z,51.82
2022-07-29T20:16:54.436Z,52.43
2022-07-29T20:19:21.391Z,51.63
2022-07-29T20:21:48.059Z,52.02
2022-07-29T20:24:14.689Z,52.89
2022-07-29T20:26:41.275Z,51.93
2022-07-29T20:29:07.956Z,52.62
2022-07-29T20:31:34.942Z,54.00
2022-07-29T20:34:02.028Z,52.98
2022-07-29T20:36:28.826Z,54.01
2022-07-29T20:38:56.442Z,53.78
2022-07-29T20:41:23.432Z,53.90
2022-07-29T20:43:50.201Z,55.22
2022-07-29T20:46:17.941Z,54.46
2022-07-29T20:48:45.151Z,55.00
2022-07-29T20:51:11.824Z,54.74
2022-07-29T20:53:39.931Z,55.44
2022-07-29T20:56:07.546Z,56.44
2022-07-29T20:58:34.670Z,54.87
2022-07-29T21:01:01.424Z,55.75
2022-07-29T21:03:28.011Z,56.08
2022-07-29T21:05:54.725Z,56.43
2022-07-29T21:08:21.422Z,57.11
2022-07-29T21:10:48.654Z,57.21
2022-07-29T21:13:15.318Z,56.47
2022-07-29T21:15:45.435Z,56.63
2022-07-29T21:18:27.742Z,57.66
2022-07-29T21:20:58.574Z,56.57
2022-07-29T21:23:25.639Z,57.91
2022-07-29T21:25:53.664Z,57.68
2022-07-29T21:28:40.063Z,57.89
2022-07-29T21:31:14.771Z,58.23
2022-07-29T21:33:44.241Z,58.54
2022-07-29T21:36:46.109Z,58.90
2022-07-29T21:38:58.517Z,57.79
2022-07-29T21:41:25.455Z,59.49
2022-07-29T21:43:52.241Z,60.20
2022-07-29T21:46:21.438Z,59.03
2022-07-29T21:48:51.445Z,60.18
2022-07-29T21:51:18.072Z,58.98
2022-07-29T21:53:44.677Z,59.94
2022-07-29T21:56:14.788Z,59.65
2022-07-29T21:58:42.006Z,59.88
2022-07-29T22:01:08.711Z,61.03
2022-07-29T22:03:35.317Z,60.81
2022-07-29T22:06:01.915Z,62.39
2022-07-29T22:08:28.555Z,62.09
2022-07-29T22:10:55.182Z,61.20
2022-07-29T22:13:21.768Z,62.49
2022-07-29T22:15:48.608Z,61.60
2022-07-29T22:18:20.559Z,62.34
2022-07-29T22:20:48.430Z,61.96
2022-07-29T22:23:15.124Z,62.66
2022-07-29T22:25:41.714Z,63.77
2022-07-29T22:28:08.307Z,62.39
2022-07-29T22:30:34.958Z,63.88
2022-07-29T22:33:01.570Z,62.54
2022-07-29T22:35:28.264Z,62.64
2022-07-29T22:37:54.938Z,62.86
2022-07-29T22:40:21.627Z,63.65
2022-07-29T22:42:48.269Z,62.72
2022-07-29T22:45:14.869Z,65.37
2022-07-29T22:47:47.892Z,64.42
2022-07-29T22:50:15.403Z,64.71
2022-07-29T22:52:42.044Z,64.20
2022-07-29T22:55:09.176Z,66.27
2022-07-29T22:57:35.805Z,64.51
2022-07-29T23:00:02.606Z,64.50
2022-07-29T23:02:29.457Z,65.64
2022-07-29T23:04:56.202Z,65.63
2022-07-29T23:07:22.982Z,65.35
2022-07-29T23:09:49.772Z,64.73
2022-07-29T23:12:16.582Z,67.10
2022-07-29T23:14:44.743Z,66.78
2022-07-29T23:17:11.430Z,68.45
2022-07-29T23:19:38.262Z,66.85
2022-07-29T23:22:05.995Z,69.19
2022-07-29T23:24:32.590Z,68.96
2022-07-29T23:26:59.589Z,69.77
2022-07-29T23:29:26.491Z,69.70
2022-07-29T23:31:53.159Z,67.54
2022-07-29T23:34:19.865Z,70.03
2022-07-29T23:36:46.462Z,67.36
2022-07-29T23:39:13.384Z,67.86
2022-07-29T23:41:40.739Z,68.50
2022-07-29T23:44:07.466Z,68.44
2022-07-29T23:46:34.590Z,70.67
2022-07-29T23:49:01.316Z,68.37
2022-07-29T23:51:29.237Z,68.82
2022-07-29T23:53:56.409Z,69.10
2022-07-29T23:56:23.584Z,68.89
2022-07-29T23:58:50.191Z,69.85
